Погода Апанасишки 1на неделю

Витебская область, Белоруссия

25 - 31 мая
  • 25мая
    Сегодня
    +13°
    +26°
    Практически безоблачно
    ВремяПогодаТемператураВлажностьДавлениеВетер, м/сВероятность осадков
    00:00Ясно и безоблачно+16°C65 %758 мм3.6 м/с2 %
    03:00Ясно и безоблачно+13°C78 %758 мм2.8 м/с2 %
    06:00Ясно и безоблачно+13°C81 %758 мм2.9 м/с2 %
    09:00Ясно и безоблачно+19°C67 %758 мм2.4 м/с2 %
    12:00Практически безоблачно+24°C54 %758 мм3.0 м/с2 %
    15:00Практически безоблачно+26°C45 %757 мм2.8 м/с7 %
    18:00Небольшая облачность+23°C51 %757 мм2.7 м/с13 %
    21:00Практически безоблачно+20°C74 %757 мм2.3 м/с5 %
  • 26мая
    Воскресенье
    +14°
    +26°
    Ясно и безоблачно
    ВремяПогодаТемператураВлажностьДавлениеВетер, м/сВероятность осадков
    00:00Ясно и безоблачно+15°C86 %757 мм2.7 м/с2 %
    03:00Ясно и безоблачно+16°C84 %757 мм1.6 м/с2 %
    06:00Ясно и безоблачно+14°C93 %757 мм1.3 м/с2 %
    09:00Ясно и безоблачно+20°C71 %758 мм0.8 м/с2 %
    12:00Ясно и безоблачно+24°C45 %758 мм0.9 м/с2 %
    15:00Ясно и безоблачно+25°C40 %758 мм0.6 м/с2 %
    18:00Практически безоблачно+25°C42 %757 мм1.0 м/с2 %
    21:00Практически безоблачно+22°C52 %757 мм0.9 м/с2 %
  • 27мая
    Понедельник
    +13°
    +26°
    Ясно и безоблачно
    ВремяПогодаТемператураВлажностьДавлениеВетер, м/сВероятность осадков
    00:00Практически безоблачно+17°C68 %757 мм2.0 м/с2 %
    03:00Ясно и безоблачно+14°C86 %757 мм2.1 м/с2 %
    06:00Ясно и безоблачно+16°C89 %757 мм1.4 м/с2 %
    09:00Ясно и безоблачно+21°C58 %758 мм1.1 м/с2 %
    12:00Ясно и безоблачно+25°C44 %757 мм2.0 м/с2 %
    15:00Ясно и безоблачно+26°C43 %757 мм1.9 м/с6 %
    18:00Ясно и безоблачно+25°C44 %755 мм1.8 м/с14 %
    21:00Ясно и безоблачно+21°C72 %755 мм2.1 м/с5 %
  • 28мая
    Вторник
    +14°
    +25°
    Ясно и безоблачно
    ВремяПогодаТемператураВлажностьДавлениеВетер, м/сВероятность осадков
    00:00Ясно и безоблачно+16°C84 %755 мм2.3 м/с2 %
    03:00Ясно и безоблачно+14°C89 %754 мм2.0 м/с2 %
    06:00Ясно и безоблачно+15°C89 %754 мм1.3 м/с2 %
    09:00Ясно и безоблачно+21°C70 %754 мм1.1 м/с2 %
    12:00Ясно и безоблачно+24°C48 %754 мм2.6 м/с9 %
    15:00Ясно и безоблачно+25°C40 %753 мм3.2 м/с21 %
    18:00Ясно и безоблачно+24°C39 %752 мм1.9 м/с40 %
    21:00Ясно и безоблачно+21°C61 %751 мм2.1 м/с18 %
  • 29мая
    Среда
    +15°
    +26°
    Практически безоблачно
    ВремяПогодаТемператураВлажностьДавлениеВетер, м/сВероятность осадков
    00:00Практически безоблачно+17°C80 %751 мм2.1 м/с7 %
    03:00Облачно с прояснениями+15°C90 %751 мм1.9 м/с2 %
    06:00Ясно и безоблачно+15°C90 %751 мм2.5 м/с5 %
    09:00Практически безоблачно+20°C72 %751 мм1.4 м/с8 %
    12:00Облачно с прояснениями+25°C49 %750 мм1.8 м/с31 %
    15:00Практически безоблачно+26°C47 %750 мм1.4 м/с45 %
    18:00Небольшая облачность, возможен дождь с грозой+25°C50 %749 мм1.6 м/с57 %
    21:00Небольшая облачность, возможен дождь с грозой+20°C77 %749 мм1.6 м/с25 %
Мы используем cookies
Соглашаюсь